Gillette, WY (82716)

9:47 PM MDT on July 22, 2014 (GMT -0600)
RAWS ECHETA WY US (MECEW4) Elev 4396 ft | 44.47 °N, 105.84 °W | Change Station

Current weather conditions updated 56 minutes ago

Clear
Clear
77 °F
Feels Like 78 °F
N
9
Wind Variable Wind from SE
Gusts 14.0 mph

Tomorrow is forecast to be Warmer than today.

Today
High -- | Low -- °F
--% Chance of Precip.
Yesterday
High -- | Low -- °F
Precip. -- in
5:38 AM 8:39 PM
Waning Crescent, 13% visible
Pressure 30.06 in
Visibility 10.0 miles
Clouds Clear
Heat Index 78 °F
Dew Point 54 °F
Humidity 45%
Rainfall 0.02 in
Snow Depth Not available.
UV 0 out of 12
Pollen 5.30 out of 12
Air Quality Not available.
Flu Activity Not available.
METAR KGCC 230253Z AUTO 13010KT 10SM CLR 24/13 A3020 RMK AO2 SLP178 T02390128 52007

More Conditions Fewer Conditions

Pressure 30.06 in
Visibility 10.0 miles
Clouds Clear
Heat Index 78 °F
Dew Point 54 °F
Humidity 45%
Rainfall 0.02 in
Snow Depth Not available.
UV 0 out of 12
Pollen 5.30 out of 12
Air Quality Not available.
Flu Activity Not available.
METAR KGCC 230253Z AUTO 13010KT 10SM CLR 24/13 A3020 RMK AO2 SLP178 T02390128 52007

More Conditions Fewer Conditions

10-Day Weather Forecast

Almanac

Astronomy

Jul. 22, 2014 Rise Set
Actual Time 5:38 AM MDT 8:39 PM MDT
Civil Twilight 5:03 AM MDT 9:13 PM MDT
Nautical Twilight 4:19 AM MDT 9:57 PM MDT
Astronomical Twilight 3:26 AM MDT 10:50 PM MDT
Moon 2:15 AM MDT (7/22) 5:18 PM MDT (7/22)
Length of Visible Light 16h 09m
Length of Day
15h 00m
Tomorrow will be 2m 1s shorter.
Waning Crescent, 13% of the Moon is Illuminated
Today
Waning Crescent
Jul 26
New
Aug 3
First Quarter
Aug 10
Full
Aug 17
Last Quarter

Today's Extremes

State Highs State Lows

Community

WunderPhotos

Upload Photos

1,736,488 photos uploaded!

Nearby

Snow Depth

Station Depth Elevation
Cole Canyon 0 in 5910 ft
Hansen Sawmill 0 in 8360 ft
Sucker Creek 0 in 8880 ft
Burgess Junction 0 in 7880 ft
Tie Creek 0 in 6870 ft

Earthquake Activity

City Distance Mag. Time & Date
No recent earthquake activity has been reported nearby.
Minimum magnitude displayed is 2.5.

Coastal Water Temperatures

Place Temperature
No Stations Reporting

Nearby Weather Stations

Station Location Temp. Heat Index Dew Point Humidity Wind Precip. Elev Updated Type
RAWS ECHETA WY, Gillette, WY 77 °F 78 °F 54 °F 45% SE  at  9 mph 0.00 in / hr 4396 ft 8:51 PM MDT MADIS

Show More Stations Show Fewer Stations